createdAt,value
2023-04-24T00:00:02.502Z,99.90
2023-04-24T00:02:31.550Z,99.90
2023-04-24T00:05:03.345Z,99.90
2023-04-24T00:07:31.643Z,99.90
2023-04-24T00:10:01.432Z,99.90
2023-04-24T00:12:29.621Z,99.90
2023-04-24T00:14:57.814Z,99.90
2023-04-24T00:17:26.205Z,99.90
2023-04-24T00:19:59.498Z,99.90
2023-04-24T00:22:28.305Z,99.90
2023-04-24T00:24:56.602Z,99.90
2023-04-24T00:27:26.214Z,99.90
2023-04-24T00:29:54.361Z,99.90
2023-04-24T00:32:22.475Z,99.90
2023-04-24T00:34:50.997Z,99.90
2023-04-24T00:37:19.127Z,99.90
2023-04-24T00:39:47.259Z,94.70
2023-04-24T00:42:15.925Z,99.90
2023-04-24T00:44:45.693Z,99.90
2023-04-24T00:47:14.922Z,99.90
2023-04-24T00:49:43.312Z,99.90
2023-04-24T00:52:11.837Z,99.90
2023-04-24T00:54:39.895Z,87.70
2023-04-24T00:57:08.295Z,99.50
2023-04-24T00:59:37.610Z,95.30
2023-04-24T01:02:07.501Z,99.90
2023-04-24T01:04:36.056Z,99.90
2023-04-24T01:07:04.480Z,99.90
2023-04-24T01:09:32.597Z,99.90
2023-04-24T01:12:01.797Z,99.90
2023-04-24T01:14:30.483Z,99.90
2023-04-24T01:17:00.048Z,99.90
2023-04-24T01:19:29.999Z,99.90
2023-04-24T01:22:04.003Z,99.90
2023-04-24T01:24:33.795Z,99.90
2023-04-24T01:27:02.305Z,99.90
2023-04-24T01:29:30.745Z,99.90
2023-04-24T01:31:59.636Z,99.90
2023-04-24T01:34:28.180Z,99.90
2023-04-24T01:36:57.456Z,99.90
2023-04-24T01:39:26.745Z,99.90
2023-04-24T01:41:56.962Z,99.90
2023-04-24T01:44:25.643Z,99.90
2023-04-24T01:46:55.159Z,99.90
2023-04-24T01:49:23.449Z,99.90
2023-04-24T01:51:51.666Z,99.90
2023-04-24T01:54:20.601Z,99.90
2023-04-24T01:56:49.232Z,99.90
2023-04-24T01:59:19.853Z,99.90
2023-04-24T02:01:48.135Z,99.90
2023-04-24T02:04:16.656Z,99.90
2023-04-24T02:06:44.954Z,99.90
2023-04-24T02:09:13.105Z,1.00
2023-04-24T02:11:41.228Z,1.00
2023-04-24T02:14:09.390Z,1.00
2023-04-24T02:16:39.025Z,1.00
2023-04-24T02:19:07.225Z,1.00
2023-04-24T02:21:35.818Z,1.00
2023-04-24T02:24:04.128Z,1.00
2023-04-24T02:26:32.866Z,1.00
2023-04-24T02:29:01.068Z,99.90
2023-04-24T02:31:29.390Z,1.00
2023-04-24T02:33:58.990Z,44.10
2023-04-24T02:36:27.312Z,99.90
2023-04-24T02:38:55.528Z,99.90
2023-04-24T02:41:23.817Z,70.00
2023-04-24T02:43:52.050Z,99.90
2023-04-24T02:46:20.305Z,46.80
2023-04-24T02:48:48.656Z,1.00
2023-04-24T02:51:18.210Z,1.00
2023-04-24T02:53:46.598Z,1.00
2023-04-24T02:56:14.909Z,1.00
2023-04-24T02:58:43.349Z,6.60
2023-04-24T03:01:11.969Z,1.00
2023-04-24T03:03:41.017Z,99.90
2023-04-24T03:06:10.081Z,99.90
2023-04-24T03:08:39.832Z,20.90
2023-04-24T03:11:08.008Z,1.00
2023-04-24T03:13:36.303Z,36.10
2023-04-24T03:16:04.518Z,99.90
2023-04-24T03:18:32.782Z,99.90
2023-04-24T03:21:00.947Z,99.90
2023-04-24T03:23:29.281Z,99.90
2023-04-24T03:25:58.799Z,99.90
2023-04-24T03:28:27.232Z,1.00
2023-04-24T03:30:55.492Z,88.10
2023-04-24T03:33:23.673Z,99.90
2023-04-24T03:35:51.812Z,1.00
2023-04-24T03:38:20.000Z,1.00
2023-04-24T03:40:48.304Z,99.90
2023-04-24T03:43:17.905Z,99.90
2023-04-24T03:45:46.112Z,99.90
2023-04-24T03:48:14.320Z,1.00
2023-04-24T03:50:42.430Z,99.90
2023-04-24T03:53:10.635Z,99.90
2023-04-24T03:55:38.970Z,99.90
2023-04-24T03:58:07.214Z,99.90
2023-04-24T04:00:38.557Z,99.90
2023-04-24T04:03:07.126Z,99.90
2023-04-24T04:05:35.550Z,1.00
2023-04-24T04:08:03.714Z,1.00
2023-04-24T04:10:31.931Z,1.00
2023-04-24T04:13:00.149Z,99.90
2023-04-24T04:15:28.387Z,1.00
2023-04-24T04:17:57.993Z,99.90
2023-04-24T04:20:26.277Z,99.90
2023-04-24T04:22:54.403Z,99.90
2023-04-24T04:25:22.552Z,1.00
2023-04-24T04:27:52.107Z,1.00
2023-04-24T04:30:22.136Z,84.80
2023-04-24T04:32:50.361Z,1.00
2023-04-24T04:37:48.187Z,1.00
2023-04-24T04:40:16.286Z,1.00
2023-04-24T04:42:47.058Z,1.00
2023-04-24T04:45:17.703Z,1.00
2023-04-24T04:47:46.546Z,1.00
2023-04-24T04:50:14.725Z,94.70
2023-04-24T04:52:44.282Z,1.00
2023-04-24T04:55:14.387Z,1.00
2023-04-24T04:57:42.538Z,1.00
2023-04-24T05:00:13.044Z,1.00
2023-04-24T05:02:41.505Z,1.00
2023-04-24T05:05:10.963Z,1.00
2023-04-24T05:07:39.113Z,1.00
2023-04-24T05:10:10.201Z,1.00
2023-04-24T05:12:38.348Z,99.90
2023-04-24T05:15:07.254Z,74.90
2023-04-24T05:17:35.459Z,1.00
2023-04-24T05:20:08.094Z,1.00
2023-04-24T05:22:36.882Z,1.00
2023-04-24T05:25:05.399Z,1.00
2023-04-24T05:27:34.932Z,1.00
2023-04-24T05:30:03.146Z,1.00
2023-04-24T05:32:31.306Z,1.00
2023-04-24T05:34:59.494Z,1.00
2023-04-24T05:37:28.104Z,1.00
2023-04-24T05:39:56.233Z,99.90
2023-04-24T05:42:24.407Z,99.90
2023-04-24T05:44:57.393Z,99.90
2023-04-24T05:47:27.312Z,99.90
2023-04-24T05:49:55.472Z,99.90
2023-04-24T05:52:23.536Z,99.90
2023-04-24T05:54:51.665Z,99.90
2023-04-24T05:57:19.868Z,99.90
2023-04-24T05:59:48.008Z,99.90
2023-04-24T06:02:17.827Z,99.90
2023-04-24T06:04:46.940Z,99.90
2023-04-24T06:07:15.253Z,99.90
2023-04-24T06:09:43.808Z,99.90
2023-04-24T06:12:12.273Z,99.90
2023-04-24T06:14:40.431Z,99.90
2023-04-24T06:17:08.590Z,99.90
2023-04-24T06:19:38.167Z,99.90
2023-04-24T06:22:06.437Z,34.50
2023-04-24T06:24:35.976Z,1.00
2023-04-24T06:27:04.268Z,1.00
2023-04-24T06:29:32.531Z,1.00
2023-04-24T06:32:00.906Z,1.00
2023-04-24T06:34:29.166Z,1.00
2023-04-24T06:36:59.825Z,1.00
2023-04-24T06:39:28.123Z,1.00
2023-04-24T06:41:57.010Z,1.00
2023-04-24T06:44:25.166Z,1.00
2023-04-24T06:46:53.501Z,1.00
2023-04-24T06:49:21.758Z,1.00
2023-04-24T06:51:49.961Z,99.90
2023-04-24T06:54:19.612Z,99.90
2023-04-24T06:56:48.875Z,99.90
2023-04-24T06:59:17.263Z,99.90
2023-04-24T07:01:45.581Z,99.90
2023-04-24T07:04:14.358Z,99.90
2023-04-24T07:06:42.881Z,99.90
2023-04-24T07:09:11.337Z,99.90
2023-04-24T07:11:41.731Z,99.90
2023-04-24T07:14:10.067Z,99.90
2023-04-24T07:16:38.311Z,99.90
2023-04-24T07:19:06.657Z,99.90
2023-04-24T07:21:34.825Z,99.90
2023-04-24T07:24:03.087Z,99.90
2023-04-24T07:26:32.248Z,99.90
2023-04-24T07:29:01.860Z,99.90
2023-04-24T07:31:30.302Z,99.90
2023-04-24T07:34:01.558Z,99.90
2023-04-24T07:36:29.708Z,99.90
2023-04-24T07:38:58.454Z,99.90
2023-04-24T07:41:26.700Z,99.90
2023-04-24T07:43:54.954Z,99.90
2023-04-24T07:46:25.749Z,99.90
2023-04-24T07:49:09.214Z,99.90
2023-04-24T07:51:41.415Z,99.90
2023-04-24T07:54:09.807Z,99.90
2023-04-24T07:56:40.066Z,99.90
2023-04-24T07:59:08.620Z,99.90
2023-04-24T08:01:38.559Z,99.90
2023-04-24T08:04:07.296Z,99.90
2023-04-24T08:06:35.822Z,99.90
2023-04-24T08:09:04.176Z,99.90
2023-04-24T08:11:32.940Z,99.90
2023-04-24T08:14:01.142Z,99.90
2023-04-24T08:16:29.658Z,99.90
2023-04-24T08:18:59.415Z,99.90
2023-04-24T08:21:28.238Z,99.90
2023-04-24T08:23:56.516Z,99.90
2023-04-24T08:26:25.804Z,99.90
2023-04-24T08:28:54.141Z,99.90
2023-04-24T08:31:23.886Z,99.90
2023-04-24T08:33:52.558Z,99.90
2023-04-24T08:36:23.802Z,99.90
2023-04-24T08:38:55.060Z,99.90
2023-04-24T08:41:25.331Z,99.90
2023-04-24T08:43:54.067Z,99.90
2023-04-24T08:46:22.697Z,99.90
2023-04-24T08:48:52.656Z,99.90
2023-04-24T08:51:22.660Z,99.90
2023-04-24T08:53:51.619Z,99.90
2023-04-24T08:56:20.062Z,99.90
2023-04-24T08:58:48.877Z,99.90
2023-04-24T09:01:17.355Z,99.90
2023-04-24T09:03:46.031Z,99.90
2023-04-24T09:06:14.496Z,99.90
2023-04-24T09:08:45.863Z,99.90
2023-04-24T09:11:14.357Z,99.90
2023-04-24T09:13:43.440Z,99.90
2023-04-24T09:16:11.756Z,99.90
2023-04-24T09:18:39.964Z,99.90
2023-04-24T09:21:11.165Z,99.90
2023-04-24T09:23:39.529Z,99.90
2023-04-24T09:26:12.052Z,99.90
2023-04-24T09:28:41.976Z,99.90
2023-04-24T09:31:15.120Z,99.90
2023-04-24T09:33:55.266Z,99.90
2023-04-24T09:36:29.879Z,99.90
2023-04-24T09:39:00.689Z,99.90
2023-04-24T09:41:30.964Z,99.90
2023-04-24T09:44:00.156Z,99.90
2023-04-24T09:46:34.426Z,99.90
2023-04-24T09:49:11.032Z,99.90
2023-04-24T09:51:40.816Z,99.90
2023-04-24T09:54:18.317Z,99.90
2023-04-24T09:56:49.815Z,99.90
2023-04-24T09:59:19.824Z,99.90
2023-04-24T10:01:49.799Z,99.90
2023-04-24T10:04:19.907Z,99.90
2023-04-24T10:06:49.931Z,99.90
2023-04-24T10:09:18.851Z,99.90
2023-04-24T10:11:49.679Z,99.90
2023-04-24T10:14:20.209Z,99.90
2023-04-24T10:16:49.446Z,99.90
2023-04-24T10:19:19.708Z,99.90
2023-04-24T10:21:48.356Z,99.90
2023-04-24T10:24:17.893Z,99.90
2023-04-24T10:26:49.420Z,99.90
2023-04-24T10:29:20.194Z,99.90
2023-04-24T10:31:48.802Z,99.90
2023-04-24T10:34:19.911Z,99.90
2023-04-24T10:36:53.280Z,99.90
2023-04-24T10:39:27.424Z,99.90
2023-04-24T10:41:58.880Z,99.90
2023-04-24T10:44:27.827Z,99.90
2023-04-24T10:46:57.875Z,99.90
2023-04-24T10:49:31.812Z,99.90
2023-04-24T10:52:06.222Z,99.90
2023-04-24T10:54:38.162Z,99.90
2023-04-24T10:57:31.796Z,99.90
2023-04-24T11:00:21.043Z,99.90
2023-04-24T11:02:54.119Z,99.90
2023-04-24T11:05:23.612Z,99.90
2023-04-24T11:08:14.374Z,99.90
2023-04-24T11:10:43.185Z,99.90
2023-04-24T11:13:12.917Z,99.90
2023-04-24T11:15:44.333Z,99.90
2023-04-24T11:18:16.998Z,99.90
2023-04-24T11:20:45.799Z,99.90
2023-04-24T11:23:15.597Z,99.90
2023-04-24T11:25:44.672Z,99.90
2023-04-24T11:28:18.412Z,99.90
2023-04-24T11:30:46.717Z,99.90
2023-04-24T11:33:22.498Z,99.90
2023-04-24T11:35:50.890Z,99.90
2023-04-24T11:38:24.648Z,99.90
2023-04-24T11:40:54.344Z,99.90
2023-04-24T11:43:24.584Z,99.90
2023-04-24T11:45:52.802Z,99.90
2023-04-24T11:48:24.211Z,99.90
2023-04-24T11:50:52.892Z,99.90
2023-04-24T11:53:22.694Z,99.90
2023-04-24T11:55:51.035Z,99.90
2023-04-24T11:58:24.396Z,99.90
2023-04-24T12:00:59.239Z,99.90
2023-04-24T12:03:27.951Z,99.90
2023-04-24T12:06:07.899Z,99.90
2023-04-24T12:08:37.925Z,99.90
2023-04-24T12:11:08.890Z,99.90
2023-04-24T12:13:38.558Z,99.90
2023-04-24T12:16:07.318Z,99.90
2023-04-24T12:18:35.672Z,99.90
2023-04-24T12:21:19.160Z,99.90
2023-04-24T12:23:49.323Z,99.90
2023-04-24T12:26:23.299Z,99.90
2023-04-24T12:28:52.844Z,99.90
2023-04-24T12:31:23.680Z,99.90
2023-04-24T12:33:51.904Z,99.90
2023-04-24T12:36:20.140Z,99.90
2023-04-24T12:38:48.268Z,99.90
2023-04-24T12:41:16.657Z,99.90
2023-04-24T12:43:56.551Z,99.90
2023-04-24T12:46:24.869Z,99.90
2023-04-24T12:48:53.071Z,99.90
2023-04-24T12:51:21.214Z,99.90
2023-04-24T12:53:49.365Z,99.90
2023-04-24T12:56:18.222Z,99.90
2023-04-24T12:58:46.312Z,99.90
2023-04-24T13:01:15.917Z,99.90
2023-04-24T13:03:44.738Z,99.90
2023-04-24T13:06:13.301Z,99.90
2023-04-24T13:08:41.425Z,99.90
2023-04-24T13:11:09.546Z,99.90
2023-04-24T13:13:37.603Z,99.90
2023-04-24T13:16:06.256Z,99.90
2023-04-24T13:18:35.781Z,99.90
2023-04-24T13:21:03.967Z,99.90
2023-04-24T13:23:32.361Z,99.90
2023-04-24T13:26:00.630Z,99.90
2023-04-24T13:28:28.884Z,99.90
2023-04-24T13:30:57.167Z,99.90
2023-04-24T13:33:25.820Z,99.90
2023-04-24T13:35:55.516Z,99.90
2023-04-24T13:38:24.414Z,99.90
2023-04-24T13:40:52.619Z,99.90
2023-04-24T13:43:20.903Z,99.90
2023-04-24T13:45:49.284Z,99.90
2023-04-24T13:48:17.652Z,99.90
2023-04-24T13:50:49.314Z,99.90
2023-04-24T13:53:18.995Z,99.90
2023-04-24T13:55:47.254Z,99.90
2023-04-24T13:58:16.070Z,99.90
2023-04-24T14:00:44.295Z,99.90
2023-04-24T14:03:12.976Z,99.90
2023-04-24T14:05:41.627Z,99.90
2023-04-24T14:08:09.833Z,99.90
2023-04-24T14:10:39.515Z,99.90
2023-04-24T14:13:08.038Z,99.90
2023-04-24T14:15:37.923Z,99.90
2023-04-24T14:18:06.606Z,99.90
2023-04-24T14:20:34.872Z,99.90
2023-04-24T14:23:02.980Z,99.90
2023-04-24T14:25:31.154Z,99.90
2023-04-24T14:28:00.873Z,99.90
2023-04-24T14:30:29.245Z,99.90
2023-04-24T14:32:57.442Z,99.90
2023-04-24T14:35:25.670Z,99.90
2023-04-24T14:37:53.852Z,99.90
2023-04-24T14:40:48.510Z,99.90
2023-04-24T14:43:11.932Z,99.90
2023-04-24T14:45:41.965Z,99.90
2023-04-24T14:48:10.504Z,99.90
2023-04-24T14:50:38.731Z,99.90
2023-04-24T14:53:07.034Z,99.90
2023-04-24T14:55:37.191Z,99.90
2023-04-24T14:58:05.893Z,99.90
2023-04-24T15:00:35.441Z,99.90
2023-04-24T15:03:04.042Z,99.90
2023-04-24T15:05:32.637Z,99.90
2023-04-24T15:08:00.976Z,99.90
2023-04-24T15:10:30.268Z,99.90
2023-04-24T15:12:58.537Z,99.90
2023-04-24T15:15:27.560Z,99.90
2023-04-24T15:17:57.604Z,99.90
2023-04-24T15:20:25.953Z,99.90
2023-04-24T15:22:54.161Z,99.90
2023-04-24T15:25:23.038Z,99.90
2023-04-24T15:27:51.626Z,99.90
2023-04-24T15:30:19.987Z,99.90
2023-04-24T15:32:48.586Z,99.90
2023-04-24T15:35:18.750Z,99.90
2023-04-24T15:37:47.282Z,99.90
2023-04-24T15:40:16.922Z,99.90
2023-04-24T15:42:45.634Z,99.90
2023-04-24T15:45:14.033Z,99.90
2023-04-24T15:47:42.511Z,99.90
2023-04-24T15:50:14.431Z,99.90
2023-04-24T15:52:44.623Z,99.90
2023-04-24T15:55:12.980Z,99.90
2023-04-24T15:57:41.548Z,99.90
2023-04-24T16:00:11.097Z,99.90
2023-04-24T16:02:39.780Z,99.90
2023-04-24T16:05:08.903Z,99.90
2023-04-24T16:07:39.759Z,99.90
2023-04-24T16:10:10.296Z,99.90
2023-04-24T16:12:38.593Z,99.90
2023-04-24T16:15:08.016Z,99.90
2023-04-24T16:17:36.253Z,99.90
2023-04-24T16:20:05.299Z,99.90
2023-04-24T16:22:33.501Z,99.90
2023-04-24T16:25:01.709Z,99.90
2023-04-24T16:27:31.984Z,99.90
2023-04-24T16:30:06.672Z,99.90
2023-04-24T16:32:35.172Z,99.90
2023-04-24T16:35:06.141Z,99.90
2023-04-24T16:37:38.455Z,99.90
2023-04-24T16:40:11.219Z,99.90
2023-04-24T16:42:41.232Z,99.90
2023-04-24T16:45:11.150Z,99.90
2023-04-24T16:47:40.983Z,99.90
2023-04-24T16:50:10.244Z,99.90
2023-04-24T16:52:38.742Z,99.90
2023-04-24T16:55:09.145Z,99.90
2023-04-24T16:57:37.530Z,99.90
2023-04-24T17:00:09.301Z,99.90
2023-04-24T17:02:37.780Z,99.90
2023-04-24T17:05:07.443Z,99.90
2023-04-24T17:07:36.290Z,99.90
2023-04-24T17:10:05.762Z,99.90
2023-04-24T17:12:34.602Z,99.90
2023-04-24T17:15:12.664Z,99.90
2023-04-24T17:17:44.855Z,99.90
2023-04-24T17:22:49.659Z,99.90
2023-04-24T17:25:18.109Z,99.90
2023-04-24T17:27:46.886Z,99.90
2023-04-24T17:30:18.098Z,99.90
2023-04-24T17:32:46.601Z,99.90
2023-04-24T17:35:14.875Z,99.90
2023-04-24T17:37:43.172Z,99.90
2023-04-24T17:40:13.120Z,99.90
2023-04-24T17:42:42.531Z,99.90
2023-04-24T17:45:12.009Z,99.90
2023-04-24T17:47:42.178Z,99.90
2023-04-24T17:50:10.867Z,99.90
2023-04-24T17:52:39.043Z,99.90
2023-04-24T17:55:08.316Z,99.90
2023-04-24T17:57:36.608Z,99.90
2023-04-24T18:00:05.343Z,99.90
2023-04-24T18:02:34.035Z,99.90
2023-04-24T18:05:03.853Z,99.90
2023-04-24T18:07:32.132Z,99.90
2023-04-24T18:10:00.707Z,99.90
2023-04-24T18:12:29.035Z,99.90
2023-04-24T18:15:12.403Z,99.90
2023-04-24T18:17:42.646Z,99.90
2023-04-24T18:20:13.777Z,99.90
2023-04-24T18:22:42.665Z,99.90
2023-04-24T18:25:11.739Z,99.90
2023-04-24T18:27:40.550Z,99.90
2023-04-24T18:30:14.274Z,99.90
2023-04-24T18:32:43.348Z,99.90
2023-04-24T18:35:13.205Z,99.90
2023-04-24T18:37:41.681Z,99.90
2023-04-24T18:40:11.262Z,99.90
2023-04-24T18:42:39.808Z,99.90
2023-04-24T18:45:08.991Z,99.90
2023-04-24T18:47:37.436Z,99.90
2023-04-24T18:50:06.006Z,99.90
2023-04-24T18:52:35.574Z,99.90
2023-04-24T18:55:05.483Z,99.90
2023-04-24T18:57:34.107Z,99.90
2023-04-24T19:00:02.515Z,99.90
2023-04-24T19:02:31.080Z,99.90
2023-04-24T19:04:59.636Z,99.90
2023-04-24T19:07:29.342Z,99.90
2023-04-24T19:09:59.085Z,99.90
2023-04-24T19:12:27.305Z,99.90
2023-04-24T19:14:58.012Z,99.90
2023-04-24T19:17:26.562Z,99.90
2023-04-24T19:19:54.817Z,99.90
2023-04-24T19:22:23.166Z,99.90
2023-04-24T19:24:51.431Z,99.90
2023-04-24T19:27:21.163Z,99.90
2023-04-24T19:29:49.525Z,99.90
2023-04-24T19:32:17.948Z,99.90
2023-04-24T19:34:46.346Z,99.90
2023-04-24T19:37:14.583Z,99.90
2023-04-24T19:39:42.960Z,99.90
2023-04-24T19:42:11.369Z,99.90
2023-04-24T19:44:41.305Z,99.90
2023-04-24T19:47:09.647Z,99.90
2023-04-24T19:49:38.216Z,99.90
2023-04-24T19:52:06.781Z,99.90
2023-04-24T19:54:36.902Z,99.90
2023-04-24T19:57:09.726Z,99.90
2023-04-24T19:59:39.135Z,99.90
2023-04-24T20:02:17.717Z,99.90
2023-04-24T20:04:50.433Z,99.90
2023-04-24T20:07:19.244Z,99.90
2023-04-24T20:09:47.799Z,99.90
2023-04-24T20:12:16.204Z,99.90
2023-04-24T20:14:44.455Z,99.90
2023-04-24T20:17:36.796Z,99.90
2023-04-24T20:20:31.035Z,99.90
2023-04-24T20:23:07.983Z,99.90
2023-04-24T20:26:02.897Z,99.90
2023-04-24T20:28:31.273Z,99.90
2023-04-24T20:31:00.173Z,99.90
2023-04-24T20:33:30.502Z,99.90
2023-04-24T20:35:58.777Z,99.90
2023-04-24T20:38:27.037Z,99.90
2023-04-24T20:40:57.977Z,99.90
2023-04-24T20:43:29.338Z,99.90
2023-04-24T20:45:58.903Z,99.90
2023-04-24T20:48:27.504Z,99.90
2023-04-24T20:50:56.993Z,99.90
2023-04-24T20:53:25.435Z,99.90
2023-04-24T20:55:53.813Z,99.90
2023-04-24T20:58:23.104Z,99.90
2023-04-24T21:00:52.062Z,99.90
2023-04-24T21:03:20.847Z,99.90
2023-04-24T21:05:49.105Z,99.90
2023-04-24T21:08:19.004Z,99.90
2023-04-24T21:10:47.186Z,99.90
2023-04-24T21:13:15.332Z,99.90
2023-04-24T21:15:43.567Z,99.90
2023-04-24T21:18:11.872Z,99.90
2023-04-24T21:20:40.207Z,99.90
2023-04-24T21:23:08.487Z,99.90
2023-04-24T21:25:38.668Z,99.90
2023-04-24T21:28:07.020Z,99.90
2023-04-24T21:30:35.228Z,99.90
2023-04-24T21:33:03.558Z,99.90
2023-04-24T21:35:33.610Z,99.90
2023-04-24T21:38:01.741Z,99.90
2023-04-24T21:40:30.346Z,99.90
2023-04-24T21:43:00.068Z,99.90
2023-04-24T21:45:28.391Z,99.90
2023-04-24T21:47:56.955Z,99.90
2023-04-24T21:50:25.254Z,99.90
2023-04-24T21:52:53.413Z,99.90
2023-04-24T21:55:23.335Z,99.90
2023-04-24T21:57:52.010Z,99.90
2023-04-24T22:00:21.802Z,99.90
2023-04-24T22:02:51.315Z,99.90
2023-04-24T22:05:20.411Z,99.90
2023-04-24T22:07:50.544Z,99.90
2023-04-24T22:10:19.127Z,99.90
2023-04-24T22:12:47.557Z,99.90
2023-04-24T22:15:15.925Z,99.90
2023-04-24T22:19:05.657Z,99.90
2023-04-24T22:21:35.525Z,99.90
2023-04-24T22:24:03.725Z,99.90
2023-04-24T22:26:32.274Z,99.90
2023-04-24T22:29:00.964Z,99.90
2023-04-24T22:31:29.255Z,99.90
2023-04-24T22:33:57.462Z,99.90
2023-04-24T22:36:26.697Z,99.90
2023-04-24T22:38:56.318Z,99.90
2023-04-24T22:41:25.011Z,99.90
2023-04-24T22:43:53.201Z,99.90
2023-04-24T22:46:21.323Z,99.90
2023-04-24T22:48:50.071Z,99.90
2023-04-24T22:51:18.290Z,99.90
2023-04-24T22:53:46.944Z,99.90
2023-04-24T22:56:16.507Z,99.90
2023-04-24T22:58:45.447Z,99.90
2023-04-24T23:01:13.756Z,99.90
2023-04-24T23:03:42.218Z,99.90
2023-04-24T23:06:11.179Z,99.90
2023-04-24T23:08:39.347Z,99.90
2023-04-24T23:11:07.726Z,99.90
2023-04-24T23:13:37.279Z,99.90
2023-04-24T23:16:06.361Z,99.90
2023-04-24T23:18:34.579Z,99.90
2023-04-24T23:21:03.442Z,99.90
2023-04-24T23:23:31.692Z,99.90
2023-04-24T23:25:59.922Z,99.90
2023-04-24T23:28:28.217Z,99.90
2023-04-24T23:30:58.039Z,99.90
2023-04-24T23:33:26.272Z,99.90
2023-04-24T23:35:54.521Z,99.90
2023-04-24T23:38:22.968Z,99.90
2023-04-24T23:40:52.088Z,99.90
2023-04-24T23:43:20.487Z,99.90
2023-04-24T23:45:48.878Z,99.90
2023-04-24T23:48:18.593Z,99.90
2023-04-24T23:50:47.191Z,99.90
2023-04-24T23:53:17.569Z,99.90
2023-04-24T23:55:45.783Z,99.90
2023-04-24T23:58:14.089Z,99.90
